sensor_id;sensor_type;location;lat;lon;timestamp;pressure;altitude;pressure_sealevel;temperature;humidity
14393;BME280;7281;42.678;23.372;2022-07-06T00:00:20;95007.78;;;25.53;58.54
14393;BME280;7281;42.678;23.372;2022-07-06T00:02:47;95023.53;;;25.54;58.06
14393;BME280;7281;42.678;23.372;2022-07-06T00:05:14;95019.63;;;25.52;58.20
14393;BME280;7281;42.678;23.372;2022-07-06T00:07:41;95021.59;;;25.55;58.06
14393;BME280;7281;42.678;23.372;2022-07-06T00:10:08;95016.66;;;25.57;58.10
14393;BME280;7281;42.678;23.372;2022-07-06T00:12:34;95028.59;;;25.75;57.63
14393;BME280;7281;42.678;23.372;2022-07-06T00:15:01;95040.47;;;25.74;57.81
14393;BME280;7281;42.678;23.372;2022-07-06T00:17:28;95046.88;;;25.54;58.45
14393;BME280;7281;42.678;23.372;2022-07-06T00:19:55;95039.19;;;25.68;58.22
14393;BME280;7281;42.678;23.372;2022-07-06T00:22:22;95038.94;;;25.42;58.65
14393;BME280;7281;42.678;23.372;2022-07-06T00:24:49;95043.06;;;25.86;57.21
14393;BME280;7281;42.678;23.372;2022-07-06T00:27:16;95054.94;;;25.85;57.02
14393;BME280;7281;42.678;23.372;2022-07-06T00:29:43;95057.47;;;26.09;56.40
14393;BME280;7281;42.678;23.372;2022-07-06T00:32:11;95057.28;;;25.86;57.23
14393;BME280;7281;42.678;23.372;2022-07-06T00:34:38;95059.59;;;25.88;56.61
14393;BME280;7281;42.678;23.372;2022-07-06T00:37:09;95059.59;;;25.88;56.90
14393;BME280;7281;42.678;23.372;2022-07-06T00:39:36;95049.56;;;25.85;56.44
14393;BME280;7281;42.678;23.372;2022-07-06T00:42:03;95057.81;;;25.45;57.90
14393;BME280;7281;42.678;23.372;2022-07-06T00:44:30;95060.13;;;25.47;57.08
14393;BME280;7281;42.678;23.372;2022-07-06T00:46:59;95065.81;;;25.02;58.90
14393;BME280;7281;42.678;23.372;2022-07-06T00:49:26;95065.69;;;25.26;57.93
14393;BME280;7281;42.678;23.372;2022-07-06T00:52:11;95054.38;;;25.33;57.48
14393;BME280;7281;42.678;23.372;2022-07-06T00:54:39;95064.69;;;24.63;60.26
14393;BME280;7281;42.678;23.372;2022-07-06T00:57:08;95066.47;;;24.71;60.45
14393;BME280;7281;42.678;23.372;2022-07-06T00:59:36;95065.50;;;24.91;59.32
14393;BME280;7281;42.678;23.372;2022-07-06T01:02:03;95046.50;;;24.96;58.88
14393;BME280;7281;42.678;23.372;2022-07-06T01:04:30;95044.63;;;25.40;58.20
14393;BME280;7281;42.678;23.372;2022-07-06T01:06:57;95025.69;;;25.49;57.89
14393;BME280;7281;42.678;23.372;2022-07-06T01:09:23;95017.47;;;25.73;57.54
14393;BME280;7281;42.678;23.372;2022-07-06T01:11:52;95014.91;;;25.95;56.59
14393;BME280;7281;42.678;23.372;2022-07-06T01:14:19;95022.72;;;25.85;56.88
14393;BME280;7281;42.678;23.372;2022-07-06T01:16:47;95010.09;;;25.70;57.34
14393;BME280;7281;42.678;23.372;2022-07-06T01:19:14;95019.25;;;26.00;56.81
14393;BME280;7281;42.678;23.372;2022-07-06T01:21:41;95016.31;;;25.74;57.29
14393;BME280;7281;42.678;23.372;2022-07-06T01:24:08;95021.00;;;25.77;57.15
14393;BME280;7281;42.678;23.372;2022-07-06T01:26:35;95015.09;;;25.71;57.15
14393;BME280;7281;42.678;23.372;2022-07-06T01:29:02;95008.97;;;25.71;57.45
14393;BME280;7281;42.678;23.372;2022-07-06T01:31:29;95016.16;;;25.67;57.39
14393;BME280;7281;42.678;23.372;2022-07-06T01:33:58;95016.84;;;25.64;56.95
14393;BME280;7281;42.678;23.372;2022-07-06T01:36:25;95006.03;;;25.60;57.13
14393;BME280;7281;42.678;23.372;2022-07-06T01:38:53;95003.25;;;25.57;56.95
14393;BME280;7281;42.678;23.372;2022-07-06T01:41:21;95004.81;;;25.42;57.34
14393;BME280;7281;42.678;23.372;2022-07-06T01:43:48;95009.06;;;25.59;56.68
14393;BME280;7281;42.678;23.372;2022-07-06T01:46:16;95009.88;;;25.32;57.65
14393;BME280;7281;42.678;23.372;2022-07-06T01:48:43;95008.34;;;25.31;57.72
14393;BME280;7281;42.678;23.372;2022-07-06T01:51:10;95011.88;;;25.19;57.79
14393;BME280;7281;42.678;23.372;2022-07-06T01:53:39;95015.47;;;25.39;57.24
14393;BME280;7281;42.678;23.372;2022-07-06T01:56:08;95020.50;;;25.56;56.93
14393;BME280;7281;42.678;23.372;2022-07-06T01:58:35;95026.59;;;25.25;57.70
14393;BME280;7281;42.678;23.372;2022-07-06T02:01:10;95029.94;;;24.79;59.87
14393;BME280;7281;42.678;23.372;2022-07-06T02:03:38;95029.59;;;24.80;59.48
14393;BME280;7281;42.678;23.372;2022-07-06T02:06:06;95037.31;;;24.30;60.93
14393;BME280;7281;42.678;23.372;2022-07-06T02:08:34;95037.22;;;24.15;61.08
14393;BME280;7281;42.678;23.372;2022-07-06T02:11:02;95037.56;;;24.13;61.78
14393;BME280;7281;42.678;23.372;2022-07-06T02:13:30;95036.91;;;24.56;59.76
14393;BME280;7281;42.678;23.372;2022-07-06T02:15:59;95042.09;;;24.76;58.50
14393;BME280;7281;42.678;23.372;2022-07-06T02:18:27;95031.66;;;25.15;57.31
14393;BME280;7281;42.678;23.372;2022-07-06T02:20:56;95026.41;;;25.18;56.72
14393;BME280;7281;42.678;23.372;2022-07-06T02:23:23;95026.91;;;24.80;57.75
14393;BME280;7281;42.678;23.372;2022-07-06T02:25:51;95029.75;;;24.99;57.58
14393;BME280;7281;42.678;23.372;2022-07-06T02:28:19;95029.31;;;25.41;55.97
14393;BME280;7281;42.678;23.372;2022-07-06T02:30:46;95025.69;;;25.49;55.53
14393;BME280;7281;42.678;23.372;2022-07-06T02:33:13;95026.44;;;24.90;56.90
14393;BME280;7281;42.678;23.372;2022-07-06T02:35:40;95031.94;;;24.42;58.61
14393;BME280;7281;42.678;23.372;2022-07-06T02:38:10;95017.00;;;24.29;58.40
14393;BME280;7281;42.678;23.372;2022-07-06T02:40:37;95035.75;;;24.69;57.52
14393;BME280;7281;42.678;23.372;2022-07-06T02:43:05;95033.16;;;24.45;58.09
14393;BME280;7281;42.678;23.372;2022-07-06T02:45:33;95025.66;;;24.90;57.00
14393;BME280;7281;42.678;23.372;2022-07-06T02:48:02;95030.00;;;24.03;59.55
14393;BME280;7281;42.678;23.372;2022-07-06T02:50:29;95025.88;;;24.45;58.66
14393;BME280;7281;42.678;23.372;2022-07-06T02:52:56;95038.50;;;24.84;57.76
14393;BME280;7281;42.678;23.372;2022-07-06T02:55:25;95034.69;;;24.85;57.27
14393;BME280;7281;42.678;23.372;2022-07-06T03:00:38;95037.16;;;25.34;56.20
14393;BME280;7281;42.678;23.372;2022-07-06T03:03:05;95028.59;;;25.44;55.75
14393;BME280;7281;42.678;23.372;2022-07-06T03:05:32;95021.31;;;25.29;56.13
14393;BME280;7281;42.678;23.372;2022-07-06T03:08:00;95023.56;;;25.27;56.40
14393;BME280;7281;42.678;23.372;2022-07-06T03:10:27;95025.53;;;25.30;56.13
14393;BME280;7281;42.678;23.372;2022-07-06T03:12:55;95022.56;;;25.47;55.99
14393;BME280;7281;42.678;23.372;2022-07-06T03:15:21;95031.88;;;25.22;56.82
14393;BME280;7281;42.678;23.372;2022-07-06T03:17:48;95034.47;;;25.18;56.70
14393;BME280;7281;42.678;23.372;2022-07-06T03:20:16;95035.56;;;25.17;57.09
14393;BME280;7281;42.678;23.372;2022-07-06T03:22:43;95044.66;;;25.13;56.81
14393;BME280;7281;42.678;23.372;2022-07-06T03:25:12;95042.94;;;25.36;56.36
14393;BME280;7281;42.678;23.372;2022-07-06T03:27:40;95044.06;;;25.35;56.29
14393;BME280;7281;42.678;23.372;2022-07-06T03:30:09;95032.59;;;25.50;56.00
14393;BME280;7281;42.678;23.372;2022-07-06T03:32:42;95044.84;;;25.35;56.42
14393;BME280;7281;42.678;23.372;2022-07-06T03:35:09;95057.63;;;25.54;55.49
14393;BME280;7281;42.678;23.372;2022-07-06T03:37:36;95058.47;;;25.42;55.68
14393;BME280;7281;42.678;23.372;2022-07-06T03:40:04;95057.63;;;25.38;56.27
14393;BME280;7281;42.678;23.372;2022-07-06T03:42:31;95057.00;;;25.45;56.10
14393;BME280;7281;42.678;23.372;2022-07-06T03:44:58;95064.13;;;25.25;56.95
14393;BME280;7281;42.678;23.372;2022-07-06T03:47:26;95061.91;;;25.27;56.99
14393;BME280;7281;42.678;23.372;2022-07-06T03:49:53;95057.09;;;25.21;56.77
14393;BME280;7281;42.678;23.372;2022-07-06T03:52:20;95063.44;;;25.13;57.34
14393;BME280;7281;42.678;23.372;2022-07-06T03:54:52;95061.59;;;25.17;56.90
14393;BME280;7281;42.678;23.372;2022-07-06T03:57:24;95067.84;;;24.93;57.43
14393;BME280;7281;42.678;23.372;2022-07-06T03:59:53;95056.75;;;25.06;57.54
14393;BME280;7281;42.678;23.372;2022-07-06T04:02:22;95057.00;;;25.01;57.25
14393;BME280;7281;42.678;23.372;2022-07-06T04:04:51;95063.16;;;25.18;56.87
14393;BME280;7281;42.678;23.372;2022-07-06T04:07:18;95062.19;;;25.10;56.63
14393;BME280;7281;42.678;23.372;2022-07-06T04:09:45;95059.88;;;25.08;56.75
14393;BME280;7281;42.678;23.372;2022-07-06T04:12:12;95067.72;;;25.01;57.25
14393;BME280;7281;42.678;23.372;2022-07-06T04:14:43;95066.78;;;25.09;56.93
14393;BME280;7281;42.678;23.372;2022-07-06T04:17:10;95070.53;;;24.93;57.45
14393;BME280;7281;42.678;23.372;2022-07-06T04:19:57;95071.16;;;24.74;56.37
14393;BME280;7281;42.678;23.372;2022-07-06T04:22:25;95066.88;;;24.85;56.02
14393;BME280;7281;42.678;23.372;2022-07-06T04:24:52;95070.34;;;25.29;54.24
14393;BME280;7281;42.678;23.372;2022-07-06T04:27:19;95055.78;;;25.15;53.88
14393;BME280;7281;42.678;23.372;2022-07-06T04:29:46;95071.31;;;24.93;54.38
14393;BME280;7281;42.678;23.372;2022-07-06T04:32:13;95069.78;;;24.92;54.80
14393;BME280;7281;42.678;23.372;2022-07-06T04:34:40;95076.59;;;24.90;55.20
14393;BME280;7281;42.678;23.372;2022-07-06T04:37:07;95076.84;;;25.13;54.01
14393;BME280;7281;42.678;23.372;2022-07-06T04:39:35;95088.56;;;24.80;53.79
14393;BME280;7281;42.678;23.372;2022-07-06T04:42:02;95080.25;;;24.97;53.41
14393;BME280;7281;42.678;23.372;2022-07-06T04:44:29;95095.00;;;24.91;54.01
14393;BME280;7281;42.678;23.372;2022-07-06T04:46:56;95097.16;;;25.14;54.00
14393;BME280;7281;42.678;23.372;2022-07-06T04:49:23;95099.19;;;24.65;55.07
14393;BME280;7281;42.678;23.372;2022-07-06T04:51:50;95108.50;;;24.31;55.19
14393;BME280;7281;42.678;23.372;2022-07-06T04:54:17;95116.75;;;24.26;56.44
14393;BME280;7281;42.678;23.372;2022-07-06T04:56:44;95114.72;;;23.99;55.77
14393;BME280;7281;42.678;23.372;2022-07-06T04:59:14;95116.28;;;24.00;57.10
14393;BME280;7281;42.678;23.372;2022-07-06T05:01:42;95122.47;;;24.00;57.01
14393;BME280;7281;42.678;23.372;2022-07-06T05:04:09;95122.56;;;24.40;55.95
14393;BME280;7281;42.678;23.372;2022-07-06T05:06:37;95144.34;;;23.70;57.46
14393;BME280;7281;42.678;23.372;2022-07-06T05:09:03;95129.78;;;23.47;58.50
14393;BME280;7281;42.678;23.372;2022-07-06T05:11:31;95126.13;;;22.77;59.98
14393;BME280;7281;42.678;23.372;2022-07-06T05:13:58;95122.25;;;22.95;59.43
14393;BME280;7281;42.678;23.372;2022-07-06T05:16:25;95132.97;;;23.07;59.65
14393;BME280;7281;42.678;23.372;2022-07-06T05:18:52;95139.88;;;23.08;59.66
14393;BME280;7281;42.678;23.372;2022-07-06T05:21:19;95134.81;;;23.16;59.04
14393;BME280;7281;42.678;23.372;2022-07-06T05:23:46;95149.97;;;23.24;59.33
14393;BME280;7281;42.678;23.372;2022-07-06T05:26:13;95141.22;;;23.68;58.51
14393;BME280;7281;42.678;23.372;2022-07-06T05:28:41;95140.38;;;23.88;57.65
14393;BME280;7281;42.678;23.372;2022-07-06T05:31:12;95148.81;;;23.66;58.32
14393;BME280;7281;42.678;23.372;2022-07-06T05:33:39;95132.25;;;23.19;58.79
14393;BME280;7281;42.678;23.372;2022-07-06T05:36:08;95151.66;;;23.49;58.25
14393;BME280;7281;42.678;23.372;2022-07-06T05:38:34;95152.59;;;23.65;58.04
14393;BME280;7281;42.678;23.372;2022-07-06T05:41:02;95145.97;;;23.95;56.88
14393;BME280;7281;42.678;23.372;2022-07-06T05:43:28;95154.91;;;24.11;57.21
14393;BME280;7281;42.678;23.372;2022-07-06T05:45:58;95155.41;;;23.92;56.06
14393;BME280;7281;42.678;23.372;2022-07-06T05:48:28;95151.38;;;24.19;55.64
14393;BME280;7281;42.678;23.372;2022-07-06T05:51:14;95154.56;;;23.56;56.70
14393;BME280;7281;42.678;23.372;2022-07-06T05:53:42;95165.63;;;24.11;55.78
14393;BME280;7281;42.678;23.372;2022-07-06T05:56:09;95162.50;;;24.33;55.58
14393;BME280;7281;42.678;23.372;2022-07-06T05:58:37;95149.63;;;25.27;53.71
14393;BME280;7281;42.678;23.372;2022-07-06T06:01:04;95140.84;;;24.38;53.78
14393;BME280;7281;42.678;23.372;2022-07-06T06:03:36;95155.91;;;24.79;53.43
14393;BME280;7281;42.678;23.372;2022-07-06T06:06:04;95164.53;;;24.72;53.70
14393;BME280;7281;42.678;23.372;2022-07-06T06:08:31;95158.38;;;24.72;53.87
14393;BME280;7281;42.678;23.372;2022-07-06T06:10:59;95158.72;;;24.34;54.31
14393;BME280;7281;42.678;23.372;2022-07-06T06:13:28;95157.84;;;24.30;53.57
14393;BME280;7281;42.678;23.372;2022-07-06T06:15:55;95162.97;;;24.71;52.92
14393;BME280;7281;42.678;23.372;2022-07-06T06:18:22;95157.78;;;24.90;51.83
14393;BME280;7281;42.678;23.372;2022-07-06T06:20:50;95147.72;;;24.99;51.66
14393;BME280;7281;42.678;23.372;2022-07-06T06:23:17;95160.59;;;25.22;51.99
14393;BME280;7281;42.678;23.372;2022-07-06T06:25:43;95156.59;;;25.16;52.53
14393;BME280;7281;42.678;23.372;2022-07-06T06:28:11;95152.41;;;25.58;50.40
14393;BME280;7281;42.678;23.372;2022-07-06T06:30:38;95144.03;;;25.59;51.16
14393;BME280;7281;42.678;23.372;2022-07-06T06:33:18;95131.44;;;25.48;50.69
14393;BME280;7281;42.678;23.372;2022-07-06T06:35:47;95147.31;;;25.53;50.53
14393;BME280;7281;42.678;23.372;2022-07-06T06:38:16;95148.22;;;25.45;50.57
14393;BME280;7281;42.678;23.372;2022-07-06T06:40:43;95143.50;;;25.54;50.61
14393;BME280;7281;42.678;23.372;2022-07-06T06:43:10;95140.44;;;25.28;50.49
14393;BME280;7281;42.678;23.372;2022-07-06T06:45:55;95145.19;;;25.19;50.21
14393;BME280;7281;42.678;23.372;2022-07-06T06:48:22;95145.47;;;25.01;51.32
14393;BME280;7281;42.678;23.372;2022-07-06T06:50:49;95149.59;;;25.39;49.82
14393;BME280;7281;42.678;23.372;2022-07-06T06:53:16;95141.16;;;25.68;49.84
14393;BME280;7281;42.678;23.372;2022-07-06T06:55:43;95141.69;;;25.58;49.82
14393;BME280;7281;42.678;23.372;2022-07-06T06:58:09;95149.19;;;25.25;51.09
14393;BME280;7281;42.678;23.372;2022-07-06T07:00:36;95139.66;;;25.98;49.09
14393;BME280;7281;42.678;23.372;2022-07-06T07:03:03;95134.78;;;26.50;48.89
14393;BME280;7281;42.678;23.372;2022-07-06T07:05:30;95129.09;;;25.46;49.46
14393;BME280;7281;42.678;23.372;2022-07-06T07:07:57;95143.53;;;25.85;49.32
14393;BME280;7281;42.678;23.372;2022-07-06T07:10:31;95140.97;;;26.04;49.26
14393;BME280;7281;42.678;23.372;2022-07-06T07:12:58;95136.72;;;26.34;48.83
14393;BME280;7281;42.678;23.372;2022-07-06T07:15:25;95128.06;;;26.25;49.23
14393;BME280;7281;42.678;23.372;2022-07-06T07:17:52;95139.00;;;25.73;49.33
14393;BME280;7281;42.678;23.372;2022-07-06T07:20:19;95142.41;;;25.86;48.75
14393;BME280;7281;42.678;23.372;2022-07-06T07:22:45;95136.97;;;25.98;48.62
14393;BME280;7281;42.678;23.372;2022-07-06T07:25:12;95130.66;;;26.06;48.36
14393;BME280;7281;42.678;23.372;2022-07-06T07:27:39;95139.47;;;25.91;47.88
14393;BME280;7281;42.678;23.372;2022-07-06T07:30:06;95130.03;;;25.97;48.21
14393;BME280;7281;42.678;23.372;2022-07-06T07:32:33;95137.72;;;25.83;48.39
14393;BME280;7281;42.678;23.372;2022-07-06T07:35:00;95132.38;;;25.83;48.74
14393;BME280;7281;42.678;23.372;2022-07-06T07:37:28;95122.41;;;25.83;48.67
14393;BME280;7281;42.678;23.372;2022-07-06T07:39:54;95131.84;;;25.62;48.90
14393;BME280;7281;42.678;23.372;2022-07-06T07:42:21;95124.75;;;25.85;48.70
14393;BME280;7281;42.678;23.372;2022-07-06T07:44:48;95129.53;;;26.38;47.88
14393;BME280;7281;42.678;23.372;2022-07-06T07:47:15;95133.91;;;25.84;48.97
14393;BME280;7281;42.678;23.372;2022-07-06T07:49:42;95137.28;;;25.65;49.03
14393;BME280;7281;42.678;23.372;2022-07-06T07:52:08;95136.69;;;26.03;48.69
14393;BME280;7281;42.678;23.372;2022-07-06T07:54:36;95125.75;;;26.58;48.08
14393;BME280;7281;42.678;23.372;2022-07-06T07:57:07;95122.84;;;27.01;47.71
14393;BME280;7281;42.678;23.372;2022-07-06T07:59:34;95119.16;;;26.71;46.34
14393;BME280;7281;42.678;23.372;2022-07-06T08:02:01;95122.31;;;26.77;46.95
14393;BME280;7281;42.678;23.372;2022-07-06T08:04:28;95127.25;;;26.90;45.77
14393;BME280;7281;42.678;23.372;2022-07-06T08:06:55;95127.44;;;26.66;46.49
14393;BME280;7281;42.678;23.372;2022-07-06T08:09:27;95119.22;;;26.40;46.47
14393;BME280;7281;42.678;23.372;2022-07-06T08:11:54;95121.06;;;26.55;45.68
14393;BME280;7281;42.678;23.372;2022-07-06T08:14:21;95121.91;;;26.59;45.97
14393;BME280;7281;42.678;23.372;2022-07-06T08:17:06;95125.25;;;27.07;45.16
14393;BME280;7281;42.678;23.372;2022-07-06T08:19:33;95137.59;;;27.08;45.69
14393;BME280;7281;42.678;23.372;2022-07-06T08:22:00;95132.72;;;27.13;44.73
14393;BME280;7281;42.678;23.372;2022-07-06T08:24:27;95122.84;;;27.01;45.00
14393;BME280;7281;42.678;23.372;2022-07-06T08:26:54;95133.50;;;27.33;45.73
14393;BME280;7281;42.678;23.372;2022-07-06T08:29:25;95123.44;;;27.30;45.18
14393;BME280;7281;42.678;23.372;2022-07-06T08:31:53;95126.19;;;27.14;44.88
14393;BME280;7281;42.678;23.372;2022-07-06T08:34:23;95123.56;;;26.98;45.05
14393;BME280;7281;42.678;23.372;2022-07-06T08:36:56;95127.94;;;27.64;44.70
14393;BME280;7281;42.678;23.372;2022-07-06T08:39:23;95124.63;;;27.93;43.69
14393;BME280;7281;42.678;23.372;2022-07-06T08:41:50;95123.38;;;28.58;43.44
14393;BME280;7281;42.678;23.372;2022-07-06T08:44:18;95120.81;;;28.43;42.41
14393;BME280;7281;42.678;23.372;2022-07-06T08:46:45;95118.22;;;28.76;42.01
14393;BME280;7281;42.678;23.372;2022-07-06T08:49:14;95105.72;;;28.61;41.86
14393;BME280;7281;42.678;23.372;2022-07-06T08:51:42;95108.66;;;28.52;42.01
14393;BME280;7281;42.678;23.372;2022-07-06T08:54:10;95118.25;;;28.27;43.34
14393;BME280;7281;42.678;23.372;2022-07-06T08:56:38;95120.31;;;27.47;44.38
14393;BME280;7281;42.678;23.372;2022-07-06T08:59:14;95123.41;;;27.68;44.13
14393;BME280;7281;42.678;23.372;2022-07-06T09:01:42;95120.31;;;27.47;44.36
14393;BME280;7281;42.678;23.372;2022-07-06T09:04:12;95126.66;;;27.77;43.80
14393;BME280;7281;42.678;23.372;2022-07-06T09:06:42;95122.63;;;28.35;42.72
14393;BME280;7281;42.678;23.372;2022-07-06T09:09:09;95120.25;;;28.30;42.16
14393;BME280;7281;42.678;23.372;2022-07-06T09:11:36;95119.16;;;27.67;43.69
14393;BME280;7281;42.678;23.372;2022-07-06T09:14:04;95123.53;;;28.20;42.23
14393;BME280;7281;42.678;23.372;2022-07-06T09:16:31;95114.69;;;28.46;41.94
14393;BME280;7281;42.678;23.372;2022-07-06T09:19:07;95116.31;;;27.79;43.31
14393;BME280;7281;42.678;23.372;2022-07-06T09:21:34;95121.34;;;27.39;44.44
14393;BME280;7281;42.678;23.372;2022-07-06T09:24:09;95110.66;;;27.65;44.21
14393;BME280;7281;42.678;23.372;2022-07-06T09:26:37;95117.75;;;27.54;44.28
14393;BME280;7281;42.678;23.372;2022-07-06T09:29:05;95126.78;;;27.42;44.78
14393;BME280;7281;42.678;23.372;2022-07-06T09:31:32;95120.38;;;28.15;43.83
14393;BME280;7281;42.678;23.372;2022-07-06T09:34:02;95116.47;;;27.89;44.57
14393;BME280;7281;42.678;23.372;2022-07-06T09:36:48;95124.16;;;28.10;43.97
14393;BME280;7281;42.678;23.372;2022-07-06T09:39:26;95124.22;;;28.62;42.80
14393;BME280;7281;42.678;23.372;2022-07-06T09:41:55;95123.00;;;28.11;43.34
14393;BME280;7281;42.678;23.372;2022-07-06T09:44:27;95110.34;;;28.12;43.19
14393;BME280;7281;42.678;23.372;2022-07-06T09:47:08;95109.56;;;28.37;43.43
14393;BME280;7281;42.678;23.372;2022-07-06T09:49:37;95102.81;;;28.24;43.90
14393;BME280;7281;42.678;23.372;2022-07-06T09:52:08;95092.84;;;27.38;44.28
14393;BME280;7281;42.678;23.372;2022-07-06T09:54:37;95101.03;;;28.09;43.30
14393;BME280;7281;42.678;23.372;2022-07-06T09:57:06;95099.94;;;27.91;43.44
14393;BME280;7281;42.678;23.372;2022-07-06T09:59:35;95101.78;;;28.32;43.33
14393;BME280;7281;42.678;23.372;2022-07-06T10:02:05;95095.38;;;28.96;42.76
14393;BME280;7281;42.678;23.372;2022-07-06T10:04:32;95105.91;;;29.05;41.78
14393;BME280;7281;42.678;23.372;2022-07-06T10:07:00;95100.75;;;28.40;42.68
14393;BME280;7281;42.678;23.372;2022-07-06T10:09:28;95097.66;;;29.24;41.94
14393;BME280;7281;42.678;23.372;2022-07-06T10:12:00;95090.19;;;29.43;41.49
14393;BME280;7281;42.678;23.372;2022-07-06T10:14:32;95095.31;;;28.92;41.76
14393;BME280;7281;42.678;23.372;2022-07-06T10:17:01;95088.31;;;29.51;40.45
14393;BME280;7281;42.678;23.372;2022-07-06T10:19:29;95093.03;;;29.24;41.17
14393;BME280;7281;42.678;23.372;2022-07-06T10:21:59;95092.13;;;28.83;41.33
14393;BME280;7281;42.678;23.372;2022-07-06T10:24:28;95089.84;;;28.85;40.90
14393;BME280;7281;42.678;23.372;2022-07-06T10:26:55;95088.66;;;28.53;41.52
14393;BME280;7281;42.678;23.372;2022-07-06T10:29:24;95081.94;;;29.33;41.20
14393;BME280;7281;42.678;23.372;2022-07-06T10:31:52;95077.03;;;29.09;41.38
14393;BME280;7281;42.678;23.372;2022-07-06T10:34:21;95081.53;;;28.98;41.52
14393;BME280;7281;42.678;23.372;2022-07-06T10:36:51;95074.94;;;29.61;40.22
14393;BME280;7281;42.678;23.372;2022-07-06T10:39:38;95090.28;;;29.54;39.77
14393;BME280;7281;42.678;23.372;2022-07-06T10:42:42;95074.41;;;29.89;39.27
14393;BME280;7281;42.678;23.372;2022-07-06T10:45:12;95073.38;;;30.04;38.94
14393;BME280;7281;42.678;23.372;2022-07-06T10:47:40;95067.28;;;30.11;38.67
14393;BME280;7281;42.678;23.372;2022-07-06T10:50:08;95074.50;;;30.43;38.14
14393;BME280;7281;42.678;23.372;2022-07-06T10:52:53;95072.50;;;31.02;38.32
14393;BME280;7281;42.678;23.372;2022-07-06T10:57:57;95075.84;;;30.20;38.18
14393;BME280;7281;42.678;23.372;2022-07-06T11:00:24;95072.28;;;29.68;38.78
14393;BME280;7281;42.678;23.372;2022-07-06T11:02:51;95080.06;;;29.37;38.69
14393;BME280;7281;42.678;23.372;2022-07-06T11:05:40;95072.06;;;29.84;39.93
14393;BME280;7281;42.678;23.372;2022-07-06T11:08:56;95067.56;;;30.49;37.95
14393;BME280;7281;42.678;23.372;2022-07-06T11:11:41;95074.50;;;29.56;38.63
14393;BME280;7281;42.678;23.372;2022-07-06T11:14:09;95076.78;;;29.54;39.21
14393;BME280;7281;42.678;23.372;2022-07-06T11:24:19;95069.59;;;30.12;38.18
14393;BME280;7281;42.678;23.372;2022-07-06T11:26:48;95065.56;;;30.39;37.09
14393;BME280;7281;42.678;23.372;2022-07-06T11:29:18;95055.63;;;30.00;38.45
14393;BME280;7281;42.678;23.372;2022-07-06T11:31:49;95055.63;;;30.57;38.13
14393;BME280;7281;42.678;23.372;2022-07-06T11:34:22;95052.63;;;30.15;37.95
14393;BME280;7281;42.678;23.372;2022-07-06T11:37:01;95051.63;;;29.83;39.04
14393;BME280;7281;42.678;23.372;2022-07-06T11:39:37;95055.66;;;29.26;38.96
14393;BME280;7281;42.678;23.372;2022-07-06T11:42:09;95051.28;;;29.15;39.12
14393;BME280;7281;42.678;23.372;2022-07-06T11:44:37;95047.22;;;29.31;39.67
14393;BME280;7281;42.678;23.372;2022-07-06T11:47:05;95042.63;;;29.32;38.63
14393;BME280;7281;42.678;23.372;2022-07-06T11:49:34;95033.69;;;29.68;37.47
14393;BME280;7281;42.678;23.372;2022-07-06T11:52:09;95040.91;;;29.17;37.41
14393;BME280;7281;42.678;23.372;2022-07-06T11:54:37;95030.34;;;29.78;37.38
14393;BME280;7281;42.678;23.372;2022-07-06T11:57:08;95028.31;;;30.15;36.92
14393;BME280;7281;42.678;23.372;2022-07-06T11:59:37;95035.88;;;30.50;36.33
14393;BME280;7281;42.678;23.372;2022-07-06T12:04:36;95029.44;;;30.11;36.96
14393;BME280;7281;42.678;23.372;2022-07-06T12:07:06;95031.09;;;29.75;38.17
14393;BME280;7281;42.678;23.372;2022-07-06T12:09:36;95015.66;;;30.26;36.49
14393;BME280;7281;42.678;23.372;2022-07-06T12:12:04;95017.25;;;30.34;36.66
14393;BME280;7281;42.678;23.372;2022-07-06T12:14:33;95013.94;;;30.65;36.27
14393;BME280;7281;42.678;23.372;2022-07-06T12:17:14;95017.44;;;29.61;37.18
14393;BME280;7281;42.678;23.372;2022-07-06T12:19:42;95010.44;;;30.61;36.84
14393;BME280;7281;42.678;23.372;2022-07-06T12:22:10;95027.59;;;30.86;37.45
14393;BME280;7281;42.678;23.372;2022-07-06T12:24:42;95026.06;;;30.93;35.99
14393;BME280;7281;42.678;23.372;2022-07-06T12:27:16;95017.19;;;30.96;35.26
14393;BME280;7281;42.678;23.372;2022-07-06T12:29:44;95009.56;;;31.33;35.77
14393;BME280;7281;42.678;23.372;2022-07-06T12:32:20;95013.84;;;31.48;35.02
14393;BME280;7281;42.678;23.372;2022-07-06T12:35:07;95007.19;;;31.28;34.36
14393;BME280;7281;42.678;23.372;2022-07-06T12:37:35;95007.56;;;31.19;35.12
14393;BME280;7281;42.678;23.372;2022-07-06T12:40:11;95014.66;;;31.87;35.28
14393;BME280;7281;42.678;23.372;2022-07-06T12:42:48;95017.97;;;30.96;35.38
14393;BME280;7281;42.678;23.372;2022-07-06T12:45:15;95015.00;;;31.40;34.71
14393;BME280;7281;42.678;23.372;2022-07-06T12:47:57;95006.88;;;31.47;34.56
14393;BME280;7281;42.678;23.372;2022-07-06T12:50:38;94996.84;;;31.79;34.27
14393;BME280;7281;42.678;23.372;2022-07-06T12:53:06;94996.84;;;32.14;33.56
14393;BME280;7281;42.678;23.372;2022-07-06T12:56:08;94999.06;;;31.28;34.44
14393;BME280;7281;42.678;23.372;2022-07-06T12:58:35;94997.63;;;31.69;33.64
14393;BME280;7281;42.678;23.372;2022-07-06T13:01:02;94995.50;;;30.85;34.44
14393;BME280;7281;42.678;23.372;2022-07-06T13:03:39;95006.09;;;31.50;34.77
14393;BME280;7281;42.678;23.372;2022-07-06T13:06:07;94995.69;;;31.87;33.67
14393;BME280;7281;42.678;23.372;2022-07-06T13:08:34;94986.03;;;31.93;33.24
14393;BME280;7281;42.678;23.372;2022-07-06T13:11:01;94996.69;;;30.88;34.39
14393;BME280;7281;42.678;23.372;2022-07-06T13:13:28;94993.34;;;31.50;33.82
14393;BME280;7281;42.678;23.372;2022-07-06T13:15:55;94992.22;;;31.90;34.06
14393;BME280;7281;42.678;23.372;2022-07-06T13:18:23;94995.25;;;31.36;33.28
14393;BME280;7281;42.678;23.372;2022-07-06T13:20:50;94995.31;;;30.46;34.43
14393;BME280;7281;42.678;23.372;2022-07-06T13:23:17;94989.03;;;31.28;33.62
14393;BME280;7281;42.678;23.372;2022-07-06T13:25:44;94979.69;;;31.05;33.04